createdAt,value
2023-08-15T00:02:12.948Z,75.20
2023-08-15T00:04:41.197Z,75.20
2023-08-15T00:07:09.428Z,75.10
2023-08-15T00:09:37.552Z,75.00
2023-08-15T00:12:06.265Z,75.10
2023-08-15T00:14:34.422Z,75.30
2023-08-15T00:17:02.564Z,75.20
2023-08-15T00:19:32.109Z,75.30
2023-08-15T00:22:00.275Z,75.60
2023-08-15T00:24:28.397Z,75.60
2023-08-15T00:26:56.552Z,75.60
2023-08-15T00:29:24.659Z,75.60
2023-08-15T00:31:52.916Z,75.60
2023-08-15T00:34:21.160Z,75.30
2023-08-15T00:36:50.630Z,75.20
2023-08-15T00:39:19.543Z,75.40
2023-08-15T00:41:47.697Z,75.50
2023-08-15T00:44:15.890Z,75.60
2023-08-15T00:46:44.675Z,75.80
2023-08-15T00:49:13.003Z,75.90
2023-08-15T00:51:41.734Z,75.80
2023-08-15T00:54:11.245Z,75.70
2023-08-15T00:56:39.516Z,75.70
2023-08-15T00:59:08.329Z,75.50
2023-08-15T01:01:38.301Z,75.50
2023-08-15T01:04:08.193Z,75.60
2023-08-15T01:06:36.362Z,75.70
2023-08-15T01:09:04.712Z,75.80
2023-08-15T01:11:41.821Z,75.90
2023-08-15T01:14:17.037Z,76.10
2023-08-15T01:16:49.513Z,76.00
2023-08-15T01:19:30.942Z,76.00
2023-08-15T01:22:01.948Z,76.20
2023-08-15T01:24:32.196Z,76.20
2023-08-15T01:27:00.296Z,76.20
2023-08-15T01:29:28.840Z,76.00
2023-08-15T01:32:05.535Z,76.10
2023-08-15T01:34:38.461Z,76.30
2023-08-15T01:37:11.041Z,76.10
2023-08-15T01:39:42.927Z,76.20
2023-08-15T01:42:12.982Z,76.20
2023-08-15T01:44:41.096Z,76.20
2023-08-15T01:47:09.275Z,76.10
2023-08-15T01:49:37.652Z,76.00
2023-08-15T01:52:06.317Z,75.90
2023-08-15T01:54:34.532Z,75.80
2023-08-15T01:57:04.106Z,75.70
2023-08-15T01:59:32.653Z,75.90
2023-08-15T02:02:00.876Z,76.10
2023-08-15T02:04:29.007Z,76.10
2023-08-15T02:06:57.213Z,76.00
2023-08-15T02:09:25.382Z,75.90
2023-08-15T02:11:53.849Z,75.80
2023-08-15T02:14:23.352Z,75.90
2023-08-15T02:16:51.560Z,75.90
2023-08-15T02:19:19.692Z,75.90
2023-08-15T02:21:47.791Z,76.20
2023-08-15T02:24:15.955Z,76.30
2023-08-15T02:26:44.049Z,76.40
2023-08-15T02:29:14.411Z,76.40
2023-08-15T02:31:49.083Z,76.30
2023-08-15T02:34:19.363Z,76.50
2023-08-15T02:36:48.999Z,76.20
2023-08-15T02:39:17.975Z,75.90
2023-08-15T02:41:46.357Z,75.70
2023-08-15T02:44:14.479Z,75.70
2023-08-15T02:46:42.642Z,75.90
2023-08-15T02:49:12.206Z,75.90
2023-08-15T02:51:40.581Z,76.20
2023-08-15T02:54:08.846Z,76.20
2023-08-15T02:56:37.058Z,76.30
2023-08-15T02:59:05.602Z,76.60
2023-08-15T03:01:34.125Z,76.80
2023-08-15T03:04:02.218Z,76.70
2023-08-15T03:06:31.892Z,76.70
2023-08-15T03:09:00.103Z,76.80
2023-08-15T03:11:29.112Z,76.80
2023-08-15T03:13:57.214Z,76.90
2023-08-15T03:16:25.454Z,77.10
2023-08-15T03:18:53.637Z,77.20
2023-08-15T03:21:21.767Z,77.40
2023-08-15T03:23:51.269Z,77.50
2023-08-15T03:26:19.437Z,77.90
2023-08-15T03:28:47.703Z,77.90
2023-08-15T03:31:15.909Z,78.00
2023-08-15T03:33:44.030Z,78.00
2023-08-15T03:36:12.222Z,78.30
2023-08-15T03:38:42.185Z,78.30
2023-08-15T03:41:11.725Z,78.60
2023-08-15T03:43:39.821Z,78.80
2023-08-15T03:46:08.741Z,78.70
2023-08-15T03:48:37.326Z,78.90
2023-08-15T03:51:06.300Z,78.80
2023-08-15T03:53:34.425Z,78.80
2023-08-15T03:56:02.582Z,78.60
2023-08-15T03:58:32.231Z,78.50
2023-08-15T04:01:02.216Z,78.30
2023-08-15T04:03:30.445Z,78.00
2023-08-15T04:05:58.605Z,78.00
2023-08-15T04:08:26.708Z,78.50
2023-08-15T04:10:55.745Z,78.70
2023-08-15T04:13:23.985Z,78.80
2023-08-15T04:15:53.623Z,78.90
2023-08-15T04:18:21.802Z,79.10
2023-08-15T04:20:49.948Z,79.00
2023-08-15T04:23:18.105Z,79.00
2023-08-15T04:25:47.084Z,79.10
2023-08-15T04:28:15.213Z,79.00
2023-08-15T04:30:43.375Z,79.00
2023-08-15T04:33:13.005Z,79.00
2023-08-15T04:35:41.135Z,78.90
2023-08-15T04:38:09.286Z,78.90
2023-08-15T04:40:41.407Z,79.00
2023-08-15T04:43:09.996Z,79.30
2023-08-15T04:45:41.905Z,79.30
2023-08-15T04:48:12.651Z,79.30
2023-08-15T04:50:41.184Z,79.40
2023-08-15T04:53:09.835Z,79.40
2023-08-15T04:55:37.949Z,79.40
2023-08-15T04:58:06.336Z,79.70
2023-08-15T05:00:35.511Z,80.10
2023-08-15T05:03:03.793Z,80.40
2023-08-15T05:05:33.500Z,80.70
2023-08-15T05:08:01.702Z,81.10
2023-08-15T05:10:29.912Z,81.10
2023-08-15T05:13:00.384Z,81.30
2023-08-15T05:15:29.086Z,82.10
2023-08-15T05:17:57.335Z,81.40
2023-08-15T05:20:25.635Z,81.30
2023-08-15T05:22:55.306Z,81.40
2023-08-15T05:25:23.564Z,81.40
2023-08-15T05:27:52.042Z,81.20
2023-08-15T05:30:20.413Z,81.20
2023-08-15T05:32:48.643Z,81.00
2023-08-15T05:35:16.890Z,80.90
2023-08-15T05:37:45.010Z,80.90
2023-08-15T05:40:14.573Z,80.90
2023-08-15T05:42:42.712Z,80.80
2023-08-15T05:45:11.844Z,80.70
2023-08-15T05:47:40.042Z,80.80
2023-08-15T05:50:09.219Z,80.70
2023-08-15T05:52:37.326Z,81.00
2023-08-15T05:55:05.948Z,81.00
2023-08-15T05:57:35.576Z,81.20
2023-08-15T06:00:05.420Z,81.50
2023-08-15T06:02:36.258Z,81.50
2023-08-15T06:05:04.574Z,81.70
2023-08-15T06:07:33.057Z,81.70
2023-08-15T06:10:01.313Z,82.10
2023-08-15T06:12:29.429Z,82.00
2023-08-15T06:14:58.922Z,82.00
2023-08-15T06:17:27.075Z,82.00
2023-08-15T06:19:55.821Z,81.90
2023-08-15T06:22:24.000Z,82.00
2023-08-15T06:24:52.285Z,82.20
2023-08-15T06:27:20.633Z,82.10
2023-08-15T06:29:48.899Z,82.10
2023-08-15T06:32:32.106Z,81.90
2023-08-15T06:35:01.938Z,82.00
2023-08-15T06:37:30.201Z,81.60
2023-08-15T06:39:58.307Z,81.50
2023-08-15T06:42:26.557Z,81.70
2023-08-15T06:45:08.678Z,81.80
2023-08-15T06:47:38.193Z,81.90
2023-08-15T06:50:07.928Z,81.80
2023-08-15T06:52:36.050Z,81.90
2023-08-15T06:55:05.007Z,81.60
2023-08-15T06:57:33.422Z,81.40
2023-08-15T07:00:01.660Z,81.00
2023-08-15T07:02:30.075Z,80.80
2023-08-15T07:04:59.724Z,80.60
2023-08-15T07:07:27.942Z,80.30
2023-08-15T07:09:56.115Z,79.70
2023-08-15T07:12:24.336Z,79.30
2023-08-15T07:14:52.482Z,79.40
2023-08-15T07:17:20.565Z,79.70
2023-08-15T07:19:48.641Z,79.90
2023-08-15T07:22:18.145Z,79.50
2023-08-15T07:24:46.403Z,79.00
2023-08-15T07:27:14.647Z,78.80
2023-08-15T07:29:42.746Z,78.50
2023-08-15T07:32:13.389Z,78.30
2023-08-15T07:34:42.131Z,77.70
2023-08-15T07:37:10.387Z,77.60
2023-08-15T07:39:39.878Z,77.50
2023-08-15T07:42:08.555Z,77.30
2023-08-15T07:44:36.818Z,77.20
2023-08-15T07:47:05.193Z,76.70
2023-08-15T07:49:33.768Z,76.20
2023-08-15T07:52:07.408Z,75.80
2023-08-15T07:54:36.019Z,75.20
2023-08-15T07:57:05.839Z,74.20
2023-08-15T07:59:34.006Z,73.90
2023-08-15T08:02:02.129Z,74.10
2023-08-15T08:04:30.422Z,74.00
2023-08-15T08:06:58.519Z,73.70
2023-08-15T08:09:26.873Z,73.40
2023-08-15T08:11:57.683Z,73.00
2023-08-15T08:14:27.192Z,72.70
2023-08-15T08:16:55.286Z,72.70
2023-08-15T08:19:23.371Z,73.00
2023-08-15T08:21:51.533Z,72.90
2023-08-15T08:24:19.964Z,72.60
2023-08-15T08:26:48.217Z,72.30
2023-08-15T08:29:16.506Z,71.70
2023-08-15T08:31:46.003Z,71.60
2023-08-15T08:34:15.835Z,71.60
2023-08-15T08:36:44.252Z,71.60
2023-08-15T08:39:25.625Z,71.50
2023-08-15T08:41:59.917Z,71.40
2023-08-15T08:44:29.558Z,71.50
2023-08-15T08:47:01.264Z,71.20
2023-08-15T08:49:31.312Z,70.60
2023-08-15T08:52:01.565Z,70.20
2023-08-15T08:54:46.924Z,69.90
2023-08-15T08:57:15.696Z,69.30
2023-08-15T08:59:45.808Z,69.00
2023-08-15T09:02:21.151Z,69.00
2023-08-15T09:04:50.464Z,68.50
2023-08-15T09:07:18.811Z,68.40
2023-08-15T09:09:47.124Z,67.90
2023-08-15T09:12:37.025Z,67.80
2023-08-15T09:15:07.878Z,67.40
2023-08-15T09:17:37.634Z,67.10
2023-08-15T09:20:13.711Z,66.70
2023-08-15T09:22:45.307Z,65.90
2023-08-15T09:25:15.093Z,65.40
2023-08-15T09:27:44.418Z,65.10
2023-08-15T09:30:14.222Z,64.40
2023-08-15T09:32:45.849Z,64.20
2023-08-15T09:35:15.748Z,63.50
2023-08-15T09:37:43.701Z,63.50
2023-08-15T09:40:17.777Z,63.70
2023-08-15T09:42:47.103Z,62.80
2023-08-15T09:45:16.405Z,63.40
2023-08-15T09:47:47.056Z,63.10
2023-08-15T09:50:16.909Z,62.90
2023-08-15T09:52:49.460Z,63.50
2023-08-15T09:55:20.489Z,62.60
2023-08-15T09:57:48.768Z,62.80
2023-08-15T10:00:18.408Z,63.20
2023-08-15T10:02:50.301Z,62.50
2023-08-15T10:05:23.546Z,62.10
2023-08-15T10:07:52.575Z,61.80
2023-08-15T10:10:21.841Z,61.70
2023-08-15T10:12:52.612Z,62.00
2023-08-15T10:15:22.287Z,61.80
2023-08-15T10:17:53.309Z,61.30
2023-08-15T10:20:22.654Z,60.60
2023-08-15T10:22:56.132Z,60.30
2023-08-15T10:25:45.111Z,59.80
2023-08-15T10:28:14.336Z,60.00
2023-08-15T10:30:50.396Z,59.90
2023-08-15T10:33:23.439Z,59.50
2023-08-15T10:35:54.611Z,59.80
2023-08-15T10:38:24.345Z,59.80
2023-08-15T10:40:55.476Z,59.70
2023-08-15T10:43:27.172Z,59.30
2023-08-15T10:45:59.024Z,59.50
2023-08-15T10:49:00.853Z,59.30
2023-08-15T10:51:31.836Z,59.40
2023-08-15T10:54:01.476Z,59.00
2023-08-15T10:56:31.864Z,58.90
2023-08-15T10:59:01.041Z,58.90
2023-08-15T11:01:30.382Z,58.90
2023-08-15T11:04:00.532Z,58.80
2023-08-15T11:06:30.161Z,58.80
2023-08-15T11:08:59.882Z,59.40
2023-08-15T11:11:28.068Z,58.90
2023-08-15T11:13:57.112Z,58.60
2023-08-15T11:16:25.644Z,58.50
2023-08-15T11:18:53.949Z,58.90
2023-08-15T11:21:23.539Z,58.70
2023-08-15T11:23:55.845Z,58.00
2023-08-15T11:26:27.037Z,58.00
2023-08-15T11:28:55.234Z,57.60
2023-08-15T11:31:24.296Z,57.50
2023-08-15T11:33:53.238Z,57.40
2023-08-15T11:36:24.226Z,57.60
2023-08-15T11:38:53.274Z,56.80
2023-08-15T11:41:21.728Z,57.20
2023-08-15T11:43:50.105Z,57.40
2023-08-15T11:46:18.357Z,58.00
2023-08-15T11:48:47.433Z,59.40
2023-08-15T11:51:22.012Z,60.40
2023-08-15T11:53:55.909Z,58.30
2023-08-15T11:56:24.219Z,59.00
2023-08-15T11:58:52.498Z,60.30
2023-08-15T12:01:20.629Z,61.60
2023-08-15T12:03:48.824Z,63.10
2023-08-15T12:06:17.273Z,64.40
2023-08-15T12:08:47.274Z,64.60
2023-08-15T12:11:24.491Z,65.20
2023-08-15T12:13:52.657Z,66.40
2023-08-15T12:16:21.055Z,67.50
2023-08-15T12:18:49.293Z,68.60
2023-08-15T12:21:17.448Z,69.40
2023-08-15T12:23:45.659Z,70.30
2023-08-15T12:26:13.815Z,70.40
2023-08-15T12:28:43.448Z,70.70
2023-08-15T12:31:11.668Z,71.30
2023-08-15T12:33:46.725Z,71.10
2023-08-15T12:36:16.877Z,71.00
2023-08-15T12:38:45.154Z,71.10
2023-08-15T12:41:14.878Z,71.10
2023-08-15T12:43:44.802Z,71.40
2023-08-15T12:46:13.180Z,71.60
2023-08-15T12:48:41.598Z,71.90
2023-08-15T12:51:09.970Z,71.90
2023-08-15T12:53:38.119Z,71.50
2023-08-15T12:56:06.459Z,71.90
2023-08-15T12:58:34.674Z,71.90
2023-08-15T13:01:04.289Z,71.80
2023-08-15T13:03:32.617Z,72.20
2023-08-15T13:06:00.811Z,71.90
2023-08-15T13:08:28.940Z,72.10
2023-08-15T13:10:57.682Z,71.80
2023-08-15T13:13:26.158Z,71.70
2023-08-15T13:15:54.262Z,71.80
2023-08-15T13:18:24.089Z,71.90
2023-08-15T13:20:52.224Z,72.00
2023-08-15T13:23:20.344Z,72.00
2023-08-15T13:25:48.536Z,72.30
2023-08-15T13:28:16.849Z,72.50
2023-08-15T13:30:47.801Z,72.80
2023-08-15T13:33:17.656Z,73.20
2023-08-15T13:35:47.291Z,73.50
2023-08-15T13:38:15.701Z,73.80
2023-08-15T13:40:43.810Z,73.40
2023-08-15T13:43:13.433Z,73.40
2023-08-15T13:45:41.552Z,73.50
2023-08-15T13:48:09.683Z,73.60
2023-08-15T13:50:37.809Z,73.70
2023-08-15T13:53:07.361Z,74.00
2023-08-15T13:55:35.575Z,74.40
2023-08-15T13:58:04.096Z,74.50
2023-08-15T14:00:33.738Z,74.70
2023-08-15T14:03:02.204Z,75.20
2023-08-15T14:05:30.445Z,75.40
2023-08-15T14:07:58.576Z,75.40
2023-08-15T14:10:28.044Z,75.60
2023-08-15T14:12:56.147Z,76.30
2023-08-15T14:15:24.269Z,75.50
2023-08-15T14:17:52.441Z,76.00
2023-08-15T14:20:21.184Z,75.90
2023-08-15T14:22:49.387Z,76.00
2023-08-15T14:25:17.730Z,76.40
2023-08-15T14:27:47.257Z,76.20
2023-08-15T14:30:15.701Z,76.50
2023-08-15T14:32:43.844Z,76.80
2023-08-15T14:35:12.146Z,76.90
2023-08-15T14:37:40.577Z,76.70
2023-08-15T14:40:09.706Z,76.60
2023-08-15T14:42:38.688Z,76.70
2023-08-15T14:45:09.698Z,76.20
2023-08-15T14:47:39.670Z,76.00
2023-08-15T14:50:08.882Z,75.80
2023-08-15T14:52:41.915Z,75.90
2023-08-15T14:55:12.378Z,75.80
2023-08-15T14:57:40.880Z,76.00
2023-08-15T15:00:12.304Z,75.90
2023-08-15T15:02:43.455Z,75.80
2023-08-15T15:05:12.216Z,75.40
2023-08-15T15:07:40.393Z,75.60
2023-08-15T15:10:09.226Z,75.90
2023-08-15T15:12:37.594Z,75.80
2023-08-15T15:15:06.563Z,76.00
2023-08-15T15:17:36.205Z,75.90
2023-08-15T15:20:05.170Z,76.10
2023-08-15T15:22:33.376Z,76.50
2023-08-15T15:25:01.663Z,76.60
2023-08-15T15:27:29.742Z,76.50
2023-08-15T15:29:57.855Z,76.90
2023-08-15T15:32:26.195Z,77.20
2023-08-15T15:34:55.694Z,77.40
2023-08-15T15:37:24.156Z,77.20
2023-08-15T15:39:52.495Z,77.30
2023-08-15T15:42:20.798Z,77.10
2023-08-15T15:44:49.076Z,77.30
2023-08-15T15:47:17.230Z,77.30
2023-08-15T15:49:45.384Z,77.40
2023-08-15T15:52:14.878Z,76.80
2023-08-15T15:54:43.011Z,77.10
2023-08-15T15:57:11.132Z,77.10
2023-08-15T15:59:39.228Z,77.20
2023-08-15T16:02:07.993Z,77.10
2023-08-15T16:04:36.142Z,77.10
2023-08-15T16:07:04.389Z,77.00
2023-08-15T16:09:34.153Z,77.20
2023-08-15T16:12:02.249Z,77.50
2023-08-15T16:14:30.919Z,77.20
2023-08-15T16:16:59.972Z,77.20
2023-08-15T16:19:28.209Z,77.30
2023-08-15T16:21:56.306Z,77.20
2023-08-15T16:24:24.483Z,77.10
2023-08-15T16:26:53.945Z,77.20
2023-08-15T16:29:22.061Z,77.50
2023-08-15T16:31:50.152Z,77.50
2023-08-15T16:34:18.352Z,77.60
2023-08-15T16:36:46.462Z,77.70
2023-08-15T16:39:14.629Z,77.90
2023-08-15T16:41:42.763Z,78.20
2023-08-15T16:44:12.240Z,78.20
2023-08-15T16:46:40.379Z,78.30
2023-08-15T16:49:08.502Z,78.10
2023-08-15T16:51:36.697Z,78.20
2023-08-15T16:54:05.184Z,78.40
2023-08-15T16:56:33.292Z,78.20
2023-08-15T16:59:01.432Z,78.10
2023-08-15T17:01:30.929Z,78.00
2023-08-15T17:03:59.239Z,77.80
2023-08-15T17:06:27.457Z,77.70
2023-08-15T17:08:56.184Z,77.50
2023-08-15T17:11:24.370Z,77.40
2023-08-15T17:13:52.520Z,77.60
2023-08-15T17:16:20.772Z,77.40
2023-08-15T17:18:50.472Z,77.10
2023-08-15T17:21:18.579Z,77.00
2023-08-15T17:23:46.705Z,77.00
2023-08-15T17:26:14.859Z,76.90
2023-08-15T17:28:42.943Z,76.90
2023-08-15T17:31:13.208Z,76.90
2023-08-15T17:33:41.496Z,77.00
2023-08-15T17:36:11.011Z,77.00
2023-08-15T17:38:39.088Z,77.00
2023-08-15T17:41:07.179Z,77.10
2023-08-15T17:43:35.915Z,77.00
2023-08-15T17:46:04.433Z,77.10
2023-08-15T17:48:32.519Z,77.20
2023-08-15T17:51:00.690Z,77.20
2023-08-15T17:53:30.172Z,77.20
2023-08-15T17:56:00.047Z,77.60
2023-08-15T17:58:31.840Z,77.50
2023-08-15T18:00:59.948Z,77.50
2023-08-15T18:03:28.188Z,77.50
2023-08-15T18:05:56.395Z,77.40
2023-08-15T18:08:24.539Z,77.40
2023-08-15T18:10:54.087Z,77.30
2023-08-15T18:13:22.231Z,77.80
2023-08-15T18:15:50.336Z,77.90
2023-08-15T18:18:18.489Z,77.80
2023-08-15T18:20:46.611Z,77.70
2023-08-15T18:23:14.748Z,77.70
2023-08-15T18:25:42.898Z,77.80
2023-08-15T18:28:12.428Z,77.80
2023-08-15T18:30:40.514Z,78.00
2023-08-15T18:33:08.690Z,77.90
2023-08-15T18:35:36.834Z,77.90
2023-08-15T18:38:05.057Z,78.20
2023-08-15T18:40:33.482Z,78.00
2023-08-15T18:43:01.755Z,78.00
2023-08-15T18:45:31.226Z,78.10
2023-08-15T18:47:59.348Z,78.30
2023-08-15T18:50:27.593Z,78.30
2023-08-15T18:52:55.781Z,78.40
2023-08-15T18:55:23.872Z,78.60
2023-08-15T18:57:51.963Z,78.50
2023-08-15T19:00:21.944Z,78.60
2023-08-15T19:02:51.726Z,78.80
2023-08-15T19:05:19.935Z,78.90
2023-08-15T19:07:48.077Z,78.80
2023-08-15T19:10:16.423Z,78.90
2023-08-15T19:12:44.535Z,78.90
2023-08-15T19:15:18.401Z,79.00
2023-08-15T19:17:49.606Z,79.20
2023-08-15T19:20:20.305Z,78.90
2023-08-15T19:22:48.457Z,79.00
2023-08-15T19:25:16.745Z,78.90
2023-08-15T19:27:45.079Z,78.90
2023-08-15T19:30:13.899Z,78.80
2023-08-15T19:32:43.197Z,79.00
2023-08-15T19:35:11.651Z,78.90
2023-08-15T19:37:41.177Z,78.90
2023-08-15T19:40:10.709Z,79.00
2023-08-15T19:42:44.413Z,79.10
2023-08-15T19:45:13.656Z,79.40
2023-08-15T19:47:42.274Z,79.40
2023-08-15T19:50:11.355Z,79.40
2023-08-15T19:52:40.998Z,79.60
2023-08-15T19:55:10.172Z,79.60
2023-08-15T19:57:38.931Z,79.60
2023-08-15T20:00:11.699Z,79.60
2023-08-15T20:02:41.152Z,79.80
2023-08-15T20:05:10.495Z,79.70
2023-08-15T20:07:40.178Z,80.00
2023-08-15T20:10:12.253Z,80.00
2023-08-15T20:12:41.077Z,80.80
2023-08-15T20:15:10.331Z,79.90
2023-08-15T20:17:38.578Z,79.80
2023-08-15T20:20:08.331Z,79.90
2023-08-15T20:22:36.977Z,80.00
2023-08-15T20:25:07.439Z,80.00
2023-08-15T20:27:35.717Z,80.00
2023-08-15T20:30:03.996Z,79.90
2023-08-15T20:32:31.290Z,79.80
2023-08-15T20:34:59.517Z,79.70
2023-08-15T20:37:28.144Z,79.80
2023-08-15T20:39:56.371Z,79.90
2023-08-15T20:42:26.023Z,80.10
2023-08-15T20:44:54.434Z,80.20
2023-08-15T20:47:22.554Z,80.00
2023-08-15T20:49:50.685Z,80.10
2023-08-15T20:52:18.839Z,80.20
2023-08-15T20:54:48.388Z,80.50
2023-08-15T20:57:16.491Z,80.40
2023-08-15T20:59:46.124Z,80.30
2023-08-15T21:02:14.252Z,80.30
2023-08-15T21:04:42.488Z,80.30
2023-08-15T21:07:10.810Z,80.40
2023-08-15T21:09:38.958Z,80.50
2023-08-15T21:12:07.458Z,80.60
2023-08-15T21:14:35.616Z,80.60
2023-08-15T21:17:05.178Z,80.50
2023-08-15T21:19:33.315Z,80.60
2023-08-15T21:22:01.458Z,80.50
2023-08-15T21:24:29.553Z,80.40
2023-08-15T21:26:57.998Z,80.50
2023-08-15T21:29:26.073Z,80.20
2023-08-15T21:31:54.327Z,80.20
2023-08-15T21:34:23.861Z,80.50
2023-08-15T21:36:52.019Z,80.80
2023-08-15T21:39:20.133Z,80.90
2023-08-15T21:41:48.258Z,81.10
2023-08-15T21:44:18.956Z,81.20
2023-08-15T21:46:47.228Z,81.30
2023-08-15T21:49:15.368Z,81.40
2023-08-15T21:51:44.888Z,81.30
2023-08-15T21:54:13.052Z,81.20
2023-08-15T21:56:41.142Z,80.90
2023-08-15T21:59:09.315Z,80.70
2023-08-15T22:01:37.505Z,80.70
2023-08-15T22:04:07.913Z,80.70
2023-08-15T22:06:36.117Z,80.80
2023-08-15T22:09:05.746Z,80.80
2023-08-15T22:11:33.844Z,80.90
2023-08-15T22:14:02.045Z,81.10
2023-08-15T22:16:30.297Z,80.60
2023-08-15T22:18:58.626Z,80.50
2023-08-15T22:21:26.763Z,80.50
2023-08-15T22:23:54.922Z,80.70
2023-08-15T22:26:24.427Z,80.80
2023-08-15T22:28:52.711Z,80.90
2023-08-15T22:31:20.808Z,80.90
2023-08-15T22:33:48.912Z,80.90
2023-08-15T22:36:17.080Z,81.00
2023-08-15T22:38:45.194Z,81.00
2023-08-15T22:41:13.530Z,81.00
2023-08-15T22:43:42.997Z,81.00
2023-08-15T22:46:11.119Z,81.00
2023-08-15T22:48:39.892Z,80.80
2023-08-15T22:51:08.001Z,80.70
2023-08-15T22:53:36.739Z,80.70
2023-08-15T22:56:04.954Z,80.80
2023-08-15T22:58:33.108Z,81.60
2023-08-15T23:01:02.659Z,81.00
2023-08-15T23:03:31.127Z,81.00
2023-08-15T23:06:03.131Z,81.00
2023-08-15T23:08:31.429Z,81.10
2023-08-15T23:10:59.921Z,81.00
2023-08-15T23:13:28.107Z,81.20
2023-08-15T23:15:56.312Z,81.40
2023-08-15T23:18:25.807Z,81.60
2023-08-15T23:20:54.274Z,81.70
2023-08-15T23:23:22.425Z,81.80
2023-08-15T23:25:50.881Z,81.80
2023-08-15T23:28:19.010Z,81.90
2023-08-15T23:30:47.132Z,82.10
2023-08-15T23:33:15.799Z,82.10
2023-08-15T23:35:45.279Z,82.20
2023-08-15T23:38:13.387Z,82.40
2023-08-15T23:40:41.480Z,82.40
2023-08-15T23:43:09.614Z,82.50
2023-08-15T23:45:37.724Z,82.50
2023-08-15T23:48:06.166Z,82.40
2023-08-15T23:50:34.363Z,82.60
2023-08-15T23:53:04.581Z,82.50
2023-08-15T23:55:32.871Z,82.70
2023-08-15T23:58:00.975Z,82.60
